createdAt,value
2016-11-18T00:00:02.090Z,997.01
2016-11-18T00:01:12.473Z,997.03
2016-11-18T00:02:22.580Z,996.99
2016-11-18T00:03:32.642Z,996.96
2016-11-18T00:04:42.973Z,996.96
2016-11-18T00:05:52.694Z,996.93
2016-11-18T00:07:03.047Z,996.9
2016-11-18T00:08:13.422Z,996.83
2016-11-18T00:09:23.773Z,996.77
2016-11-18T00:10:33.789Z,996.7
2016-11-18T00:11:44.383Z,996.67
2016-11-18T00:12:54.424Z,996.65
2016-11-18T00:14:04.447Z,996.71
2016-11-18T00:15:14.787Z,996.7
2016-11-18T00:16:24.842Z,996.66
2016-11-18T00:17:34.861Z,996.72
2016-11-18T00:18:44.924Z,996.62
2016-11-18T00:19:55.270Z,996.57
2016-11-18T00:21:05.606Z,996.62
2016-11-18T00:22:15.637Z,996.62
2016-11-18T00:23:25.998Z,996.58
2016-11-18T00:24:36.331Z,996.59
2016-11-18T00:25:46.379Z,996.56
2016-11-18T00:26:56.711Z,996.57
2016-11-18T00:28:06.737Z,996.58
2016-11-18T00:29:17.058Z,996.57
2016-11-18T00:30:26.747Z,996.58
2016-11-18T00:31:37.091Z,996.6
2016-11-18T00:32:47.424Z,996.55
2016-11-18T00:33:57.474Z,996.55
2016-11-18T00:35:07.793Z,996.54
2016-11-18T00:36:17.834Z,996.56
2016-11-18T00:37:27.860Z,996.54
2016-11-18T00:38:37.984Z,996.53
2016-11-18T00:39:48.314Z,996.58
2016-11-18T00:40:58.699Z,996.63
2016-11-18T00:42:09.047Z,996.64
2016-11-18T00:43:19.381Z,996.65
2016-11-18T00:44:29.745Z,996.66
2016-11-18T00:45:39.778Z,996.57
2016-11-18T00:46:50.129Z,996.55
2016-11-18T00:48:00.461Z,996.58
2016-11-18T00:49:10.475Z,996.59
2016-11-18T00:50:20.815Z,996.5
2016-11-18T00:51:30.875Z,996.53
2016-11-18T00:52:40.913Z,996.51
2016-11-18T00:53:51.263Z,996.6
2016-11-18T00:55:01.295Z,996.53
2016-11-18T00:56:11.627Z,996.48
2016-11-18T00:57:21.955Z,996.46
2016-11-18T00:58:32.311Z,996.46
2016-11-18T00:59:42.339Z,996.45
2016-11-18T01:00:52.374Z,996.45
2016-11-18T01:02:02.382Z,996.4
2016-11-18T01:03:12.397Z,996.42
2016-11-18T01:04:22.746Z,996.42
2016-11-18T01:05:32.453Z,996.4
2016-11-18T01:06:42.464Z,996.4
2016-11-18T01:07:52.483Z,996.43
2016-11-18T01:09:02.506Z,996.37
2016-11-18T01:10:12.837Z,996.42
2016-11-18T01:11:22.859Z,996.38
2016-11-18T01:12:33.200Z,996.44
2016-11-18T01:13:43.217Z,996.39
2016-11-18T01:14:53.534Z,996.35
2016-11-18T01:16:03.262Z,996.36
2016-11-18T01:17:13.284Z,996.39
2016-11-18T01:18:23.682Z,996.33
2016-11-18T01:19:34.011Z,996.34
2016-11-18T01:20:44.352Z,996.35
2016-11-18T01:21:54.704Z,996.36
2016-11-18T01:23:05.040Z,996.34
2016-11-18T01:24:15.047Z,996.31
2016-11-18T01:25:25.075Z,996.29
2016-11-18T01:26:34.777Z,996.31
2016-11-18T01:27:45.119Z,996.34
2016-11-18T01:28:55.459Z,996.32
2016-11-18T01:30:05.799Z,996.4
2016-11-18T01:31:15.822Z,996.33
2016-11-18T01:32:26.151Z,996.37
2016-11-18T01:33:36.483Z,996.32
2016-11-18T01:34:46.824Z,996.25
2016-11-18T01:35:56.851Z,996.27
2016-11-18T01:37:06.865Z,996.25
2016-11-18T01:38:17.205Z,996.22
2016-11-18T01:39:27.217Z,996.21
2016-11-18T01:40:37.561Z,996.17
2016-11-18T01:41:47.900Z,996.17
2016-11-18T01:42:58.232Z,996.17
2016-11-18T01:44:08.573Z,996.17
2016-11-18T01:45:18.905Z,996.13
2016-11-18T01:46:29.236Z,996.09
2016-11-18T01:47:39.274Z,996.05
2016-11-18T01:48:49.611Z,996.04
2016-11-18T01:49:59.976Z,996.03
2016-11-18T01:51:09.992Z,996.01
2016-11-18T01:52:20.343Z,996
2016-11-18T01:53:30.677Z,995.96
2016-11-18T01:54:40.696Z,995.99
2016-11-18T01:55:51.032Z,995.99
2016-11-18T01:57:01.358Z,995.97
2016-11-18T01:58:11.695Z,995.92
2016-11-18T01:59:22.023Z,995.91
2016-11-18T02:00:32.363Z,995.97
2016-11-18T02:01:42.700Z,995.96
2016-11-18T02:02:52.407Z,995.9
2016-11-18T02:04:02.417Z,995.89
2016-11-18T02:05:12.780Z,995.85
2016-11-18T02:06:23.100Z,995.88
2016-11-18T02:07:33.464Z,995.87
2016-11-18T02:08:43.798Z,995.96
2016-11-18T02:09:54.122Z,995.9
2016-11-18T02:11:04.488Z,995.88
2016-11-18T02:12:14.823Z,995.89
2016-11-18T02:13:25.190Z,995.88
2016-11-18T02:14:35.210Z,995.82
2016-11-18T02:15:45.548Z,995.77
2016-11-18T02:16:55.937Z,995.76
2016-11-18T02:18:06.266Z,995.75
2016-11-18T02:19:16.598Z,995.78
2016-11-18T02:20:26.935Z,995.77
2016-11-18T02:21:37.257Z,995.72
2016-11-18T02:22:47.603Z,995.7
2016-11-18T02:23:57.940Z,995.67
2016-11-18T02:25:08.270Z,995.69
2016-11-18T02:26:18.600Z,995.67
2016-11-18T02:27:28.925Z,995.65
2016-11-18T02:28:39.254Z,995.61
2016-11-18T02:29:49.575Z,995.63
2016-11-18T02:30:59.916Z,995.63
2016-11-18T02:32:10.245Z,995.61
2016-11-18T02:33:20.574Z,995.59
2016-11-18T02:34:30.910Z,995.58
2016-11-18T02:35:41.252Z,995.64
2016-11-18T02:36:51.570Z,995.62
2016-11-18T02:38:01.580Z,995.65
2016-11-18T02:39:11.627Z,995.63
2016-11-18T02:40:21.978Z,995.66
2016-11-18T02:41:32.017Z,995.65
2016-11-18T02:42:42.351Z,995.6
2016-11-18T02:43:52.674Z,995.56
2016-11-18T02:45:03.036Z,995.53
2016-11-18T02:46:12.747Z,995.43
2016-11-18T02:47:22.776Z,995.45
2016-11-18T02:48:33.107Z,995.43
2016-11-18T02:49:43.128Z,995.32
2016-11-18T02:50:53.496Z,995.3
2016-11-18T02:52:03.822Z,995.26
2016-11-18T02:53:14.167Z,995.23
2016-11-18T02:54:24.188Z,995.24
2016-11-18T02:55:34.206Z,995.15
2016-11-18T02:56:44.543Z,995.18
2016-11-18T02:57:54.879Z,995.27
2016-11-18T02:59:04.900Z,995.18
2016-11-18T03:00:15.229Z,995.15
2016-11-18T03:01:25.550Z,995.14
2016-11-18T03:32:42.818Z,994.64
2016-11-18T03:33:53.139Z,994.6
2016-11-18T03:35:03.477Z,994.63
2016-11-18T03:36:13.794Z,994.55
2016-11-18T03:37:24.109Z,994.58
2016-11-18T03:38:34.431Z,994.56
2016-11-18T03:39:44.768Z,994.54
2016-11-18T03:40:55.091Z,994.59
2016-11-18T03:42:04.831Z,994.55
2016-11-18T03:43:14.848Z,994.61
2016-11-18T03:44:25.169Z,994.56
2016-11-18T03:45:34.882Z,994.53
2016-11-18T03:46:45.213Z,994.53
2016-11-18T03:47:55.549Z,994.48
2016-11-18T03:49:05.895Z,994.46
2016-11-18T03:50:16.218Z,994.46
2016-11-18T03:51:26.585Z,994.47
2016-11-18T03:52:36.905Z,994.45
2016-11-18T03:53:47.237Z,994.44
2016-11-18T03:54:57.564Z,994.48
2016-11-18T03:56:07.922Z,994.46
2016-11-18T03:57:18.181Z,994.44
2016-11-18T03:58:28.513Z,994.42
2016-11-18T03:59:38.849Z,994.37
2016-11-18T04:00:48.902Z,994.36
2016-11-18T04:01:59.239Z,994.36
2016-11-18T04:03:09.576Z,994.36
2016-11-18T04:04:19.611Z,994.36
2016-11-18T04:05:29.633Z,994.37
2016-11-18T04:06:39.959Z,994.38
2016-11-18T04:07:49.982Z,994.42
2016-11-18T04:09:00.017Z,994.43
2016-11-18T04:10:10.347Z,994.46
2016-11-18T04:11:20.691Z,994.55
2016-11-18T04:12:31.009Z,994.46
2016-11-18T04:13:41.429Z,994.47
2016-11-18T04:14:51.766Z,994.46
2016-11-18T04:16:02.108Z,994.5
2016-11-18T04:17:12.127Z,994.47
2016-11-18T04:18:22.472Z,994.49
2016-11-18T04:19:32.808Z,994.42
2016-11-18T04:20:43.130Z,994.37
2016-11-18T04:21:53.457Z,994.4
2016-11-18T04:23:03.793Z,994.48
2016-11-18T04:24:14.135Z,994.48
2016-11-18T04:25:24.161Z,994.36
2016-11-18T04:26:34.495Z,994.31
2016-11-18T04:27:44.516Z,994.34
2016-11-18T04:28:54.847Z,994.27
2016-11-18T04:30:04.555Z,994.24
2016-11-18T04:31:14.890Z,994.28
2016-11-18T04:32:25.218Z,994.21
2016-11-18T04:33:35.229Z,994.24
2016-11-18T04:34:44.983Z,994.19
2016-11-18T04:35:55.313Z,994.16
2016-11-18T04:37:05.651Z,994.16
2016-11-18T04:38:15.971Z,994.15
2016-11-18T04:39:26.288Z,994.2
2016-11-18T04:40:36.634Z,994.17
2016-11-18T04:41:46.968Z,994.24
2016-11-18T04:42:56.989Z,994.26
2016-11-18T04:44:07.323Z,994.33
2016-11-18T04:45:17.667Z,994.29
2016-11-18T04:46:27.998Z,994.33
2016-11-18T04:47:37.711Z,994.36
2016-11-18T04:48:47.751Z,994.34
2016-11-18T04:49:58.074Z,994.38
2016-11-18T04:51:08.092Z,994.35
2016-11-18T04:52:18.435Z,994.4
2016-11-18T04:53:28.774Z,994.44
2016-11-18T04:54:39.101Z,994.43
2016-11-18T04:55:49.117Z,994.43
2016-11-18T04:56:59.158Z,994.43
2016-11-18T04:58:09.175Z,994.4
2016-11-18T04:59:19.513Z,994.42
2016-11-18T05:00:29.839Z,994.37
2016-11-18T05:01:40.155Z,994.38
2016-11-18T05:02:50.482Z,994.36
2016-11-18T05:04:00.830Z,994.34
2016-11-18T05:05:10.840Z,994.39
2016-11-18T05:06:21.176Z,994.37
2016-11-18T05:07:31.504Z,994.36
2016-11-18T05:08:41.820Z,994.31
2016-11-18T05:09:52.157Z,994.33
2016-11-18T05:11:02.173Z,994.34
2016-11-18T05:12:12.511Z,994.3
2016-11-18T05:13:22.834Z,994.32
2016-11-18T05:14:33.170Z,994.29
2016-11-18T05:15:43.496Z,994.29
2016-11-18T05:16:53.514Z,994.31
2016-11-18T05:18:03.835Z,994.38
2016-11-18T05:19:13.542Z,994.39
2016-11-18T05:20:23.883Z,994.43
2016-11-18T05:21:34.160Z,994.39
2016-11-18T05:22:44.175Z,994.43
2016-11-18T05:23:54.502Z,994.5
2016-11-18T05:25:04.839Z,994.59
2016-11-18T05:26:14.865Z,994.54
2016-11-18T05:27:25.192Z,994.61
2016-11-18T05:28:35.544Z,994.62
2016-11-18T05:29:45.565Z,994.6
2016-11-18T05:30:55.592Z,994.64
2016-11-18T05:32:05.936Z,994.72
2016-11-18T05:33:15.645Z,994.71
2016-11-18T05:34:25.979Z,994.77
2016-11-18T05:35:36.344Z,994.82
2016-11-18T05:36:46.687Z,994.82
2016-11-18T05:37:57.011Z,994.81
2016-11-18T05:39:06.715Z,994.81
2016-11-18T05:40:17.060Z,994.85
2016-11-18T05:41:27.414Z,994.87
2016-11-18T05:42:37.752Z,994.9
2016-11-18T05:43:48.206Z,994.86
2016-11-18T05:44:58.223Z,994.85
2016-11-18T05:46:08.269Z,994.8
2016-11-18T05:47:18.594Z,994.84
2016-11-18T05:48:28.929Z,994.83
2016-11-18T05:49:39.260Z,994.85
2016-11-18T05:50:49.633Z,994.84
2016-11-18T05:51:59.962Z,994.84
2016-11-18T05:53:10.345Z,994.87
2016-11-18T05:54:20.353Z,994.83
2016-11-18T05:55:30.373Z,994.85
2016-11-18T05:56:40.701Z,994.88
2016-11-18T05:57:51.041Z,994.9
2016-11-18T05:59:01.368Z,994.87
2016-11-18T06:00:11.706Z,994.81
2016-11-18T06:01:22.031Z,994.84
2016-11-18T06:02:31.770Z,994.83
2016-11-18T06:03:42.097Z,994.88
2016-11-18T06:04:52.108Z,994.84
2016-11-18T06:06:02.120Z,994.81
2016-11-18T06:07:12.464Z,994.81
2016-11-18T06:08:22.494Z,994.79
2016-11-18T06:09:32.509Z,994.78
2016-11-18T06:10:42.221Z,994.78
2016-11-18T06:11:52.242Z,994.79
2016-11-18T06:13:02.564Z,994.81
2016-11-18T06:14:12.587Z,994.8
2016-11-18T06:15:22.933Z,994.74
2016-11-18T06:16:33.263Z,994.76
2016-11-18T06:17:43.602Z,994.77
2016-11-18T06:18:53.970Z,994.75
2016-11-18T06:20:03.979Z,994.74
2016-11-18T06:21:14.023Z,994.8
2016-11-18T06:22:24.379Z,994.81
2016-11-18T06:23:34.710Z,994.82
2016-11-18T06:24:44.733Z,994.83
2016-11-18T06:25:55.083Z,994.82
2016-11-18T06:27:05.429Z,994.83
2016-11-18T06:28:15.791Z,994.86
2016-11-18T06:29:26.140Z,994.88
2016-11-18T06:30:36.471Z,994.91
2016-11-18T06:31:46.482Z,994.9
2016-11-18T06:32:56.514Z,994.85
2016-11-18T06:34:06.855Z,994.85
2016-11-18T06:35:17.188Z,994.84
2016-11-18T06:36:27.569Z,994.87
2016-11-18T06:37:37.910Z,994.91
2016-11-18T06:38:48.243Z,994.97
2016-11-18T06:39:58.276Z,995.01
2016-11-18T06:41:08.632Z,994.98
2016-11-18T06:42:18.651Z,995.07
2016-11-18T06:43:28.979Z,995.08
2016-11-18T06:44:39.001Z,995.09
2016-11-18T06:45:49.018Z,995.11
2016-11-18T06:46:59.064Z,995.11
2016-11-18T06:48:09.416Z,995.15
2016-11-18T06:49:19.739Z,995.06
2016-11-18T06:50:29.765Z,995.1
2016-11-18T06:51:40.111Z,995.15
2016-11-18T06:52:50.225Z,995.15
2016-11-18T06:54:00.574Z,995.15
2016-11-18T06:55:10.890Z,995.11
2016-11-18T06:56:21.233Z,995.08
2016-11-18T06:57:31.561Z,995.07
2016-11-18T06:58:41.882Z,995.06
2016-11-18T06:59:51.599Z,995.12
2016-11-18T07:01:01.936Z,995.13
2016-11-18T07:02:12.266Z,995.1
2016-11-18T07:03:22.596Z,995.1
2016-11-18T07:04:32.947Z,995.05
2016-11-18T07:05:43.294Z,995.08
2016-11-18T07:06:53.619Z,995.04
2016-11-18T07:08:03.635Z,994.95
2016-11-18T07:09:13.969Z,994.97
2016-11-18T07:10:23.995Z,995
2016-11-18T07:11:34.332Z,994.95
2016-11-18T07:12:44.393Z,994.92
2016-11-18T07:13:54.422Z,994.89
2016-11-18T07:15:04.806Z,994.88
2016-11-18T07:16:15.148Z,994.97
2016-11-18T07:17:25.171Z,994.98
2016-11-18T07:18:35.508Z,994.98
2016-11-18T07:19:45.835Z,995.03
2016-11-18T07:20:55.959Z,995.01
2016-11-18T07:22:05.986Z,994.98
2016-11-18T07:23:16.323Z,994.99
2016-11-18T07:24:26.339Z,994.98
2016-11-18T07:25:36.671Z,995
2016-11-18T07:26:46.684Z,995.01
2016-11-18T07:27:57.064Z,995
2016-11-18T07:29:07.392Z,995.04
2016-11-18T07:30:17.404Z,995.08
2016-11-18T07:31:27.732Z,995.04
2016-11-18T07:32:38.077Z,995.07
2016-11-18T07:33:48.413Z,995.06
2016-11-18T07:34:58.765Z,995.11
2016-11-18T07:36:09.101Z,995.12
2016-11-18T07:37:19.424Z,995.06
2016-11-18T07:38:29.447Z,995.06
2016-11-18T07:39:39.831Z,995.04
2016-11-18T07:40:50.150Z,995
2016-11-18T07:42:00.507Z,994.94
2016-11-18T07:43:10.537Z,994.95
2016-11-18T07:44:20.568Z,994.92
2016-11-18T07:45:30.587Z,994.9
2016-11-18T07:46:40.926Z,994.89
2016-11-18T07:47:51.261Z,994.89
2016-11-18T07:49:01.590Z,994.85
2016-11-18T07:50:11.612Z,994.85
2016-11-18T07:51:21.949Z,994.86
2016-11-18T07:52:32.292Z,994.89
2016-11-18T07:53:42.299Z,994.94
2016-11-18T07:54:52.634Z,994.89
2016-11-18T07:56:02.971Z,994.92
2016-11-18T07:57:13.360Z,994.89
2016-11-18T07:58:23.089Z,994.89
2016-11-18T07:59:33.417Z,994.85
2016-11-18T08:00:43.748Z,994.8
2016-11-18T08:01:54.090Z,994.8
2016-11-18T08:03:04.435Z,994.82
2016-11-18T08:04:14.169Z,994.83
2016-11-18T08:05:24.191Z,994.83
2016-11-18T08:06:34.540Z,994.89
2016-11-18T08:07:44.872Z,994.86
2016-11-18T08:08:55.199Z,994.83
2016-11-18T08:10:05.221Z,994.8
2016-11-18T08:11:15.268Z,994.81
2016-11-18T08:12:25.339Z,994.79
2016-11-18T08:13:35.688Z,994.79
2016-11-18T08:14:46.011Z,994.82
2016-11-18T08:15:56.226Z,994.83
2016-11-18T08:17:06.552Z,994.87
2016-11-18T08:18:16.575Z,994.87
2016-11-18T08:19:26.913Z,994.85
2016-11-18T08:20:37.269Z,994.82
2016-11-18T08:21:47.598Z,994.84
2016-11-18T08:22:57.930Z,994.89
2016-11-18T08:24:08.270Z,994.81
2016-11-18T08:25:18.633Z,994.77
2016-11-18T08:26:28.969Z,994.81
2016-11-18T08:27:39.307Z,994.74
2016-11-18T08:28:49.684Z,994.78
2016-11-18T08:30:00.010Z,994.72
2016-11-18T08:31:09.417Z,994.69
2016-11-18T08:32:19.741Z,994.68
2016-11-18T08:33:29.755Z,994.67
2016-11-18T08:34:40.092Z,994.65
2016-11-18T08:35:50.448Z,994.68
2016-11-18T08:37:00.156Z,994.67
2016-11-18T08:38:10.182Z,994.69
2016-11-18T08:39:20.204Z,994.65
2016-11-18T08:40:30.216Z,994.59
2016-11-18T08:41:39.917Z,994.51
2016-11-18T08:42:50.261Z,994.58
2016-11-18T08:43:59.999Z,994.58
2016-11-18T08:45:10.343Z,994.57
2016-11-18T08:46:20.675Z,994.56
2016-11-18T08:47:31.011Z,994.52
2016-11-18T08:48:41.357Z,994.55
2016-11-18T08:49:51.387Z,994.54
2016-11-18T08:51:01.752Z,994.56
2016-11-18T08:52:12.088Z,994.51
2016-11-18T08:53:22.424Z,994.5
2016-11-18T08:54:32.751Z,994.5
2016-11-18T08:55:42.464Z,994.52
2016-11-18T08:56:52.175Z,994.51
2016-11-18T08:58:02.519Z,994.5
2016-11-18T08:59:12.540Z,994.57
2016-11-18T09:00:22.875Z,994.54
2016-11-18T09:01:33.212Z,994.6
2016-11-18T09:02:43.539Z,994.58
2016-11-18T09:03:53.865Z,994.57
2016-11-18T09:05:03.901Z,994.59
2016-11-18T09:06:13.614Z,994.67
2016-11-18T09:07:23.951Z,994.68
2016-11-18T09:08:34.282Z,994.73
2016-11-18T09:09:44.297Z,994.76
2016-11-18T09:10:54.625Z,994.73
2016-11-18T09:12:04.649Z,994.76
2016-11-18T09:13:14.699Z,994.69
2016-11-18T09:14:24.722Z,994.63
2016-11-18T09:15:35.062Z,994.67
2016-11-18T09:16:45.084Z,994.65
2016-11-18T09:17:55.101Z,994.63
2016-11-18T09:19:05.437Z,994.67
2016-11-18T09:20:15.474Z,994.65
2016-11-18T09:21:25.812Z,994.59
2016-11-18T09:22:36.152Z,994.55
2016-11-18T09:23:46.193Z,994.52
2016-11-18T09:24:56.543Z,994.5
2016-11-18T09:26:06.559Z,994.52
2016-11-18T09:27:16.579Z,994.5
2016-11-18T09:28:26.913Z,994.5
2016-11-18T09:29:37.248Z,994.54
2016-11-18T09:30:47.593Z,994.45
2016-11-18T09:31:57.934Z,994.38
2016-11-18T09:33:08.594Z,994.3
2016-11-18T09:34:18.932Z,994.22
2016-11-18T09:35:29.263Z,994.25
2016-11-18T09:36:39.583Z,994.34
2016-11-18T09:37:49.914Z,994.39
2016-11-18T09:38:59.937Z,994.37
2016-11-18T09:40:09.943Z,994.3
2016-11-18T09:41:19.964Z,994.26
2016-11-18T09:42:29.997Z,994.25
2016-11-18T09:43:39.702Z,994.21
2016-11-18T09:44:50.050Z,994.17
2016-11-18T09:46:00.386Z,994.21
2016-11-18T09:47:11.140Z,994.19
2016-11-18T09:48:21.842Z,994.16
2016-11-18T09:49:31.893Z,994.12
2016-11-18T09:50:41.951Z,994.1
2016-11-18T09:51:52.029Z,994.09
2016-11-18T09:53:01.750Z,994.07
2016-11-18T09:54:11.792Z,994.1
2016-11-18T09:55:22.156Z,994.1
2016-11-18T09:56:32.520Z,994.04
2016-11-18T09:57:42.257Z,994.03
2016-11-18T09:58:52.304Z,994.08
2016-11-18T10:00:02.678Z,994.09
2016-11-18T10:01:13.064Z,994.06
2016-11-18T10:02:23.713Z,993.99
2016-11-18T10:03:34.163Z,993.95
2016-11-18T10:04:44.545Z,993.94
2016-11-18T10:05:54.601Z,993.96
2016-11-18T10:07:04.640Z,993.96
2016-11-18T10:08:14.702Z,993.98
2016-11-18T10:09:25.059Z,993.93
2016-11-18T10:10:35.406Z,993.96
2016-11-18T10:11:45.448Z,993.91
2016-11-18T10:12:55.795Z,993.91
2016-11-18T10:14:06.204Z,993.86
2016-11-18T10:15:16.549Z,993.91
2016-11-18T10:16:26.695Z,993.9
2016-11-18T10:17:37.075Z,993.87
2016-11-18T10:18:47.429Z,993.86
2016-11-18T10:19:57.819Z,993.82
2016-11-18T10:21:08.215Z,993.82
2016-11-18T10:22:18.561Z,993.8
2016-11-18T10:23:29.066Z,993.8
2016-11-18T10:24:39.485Z,993.77
2016-11-18T10:25:49.948Z,993.73
2016-11-18T10:27:00.406Z,993.8
2016-11-18T10:28:10.873Z,993.76
2016-11-18T10:29:21.282Z,993.75
2016-11-18T10:30:31.651Z,993.77
2016-11-18T10:31:42.121Z,993.76
2016-11-18T10:32:52.493Z,993.81
2016-11-18T10:34:02.850Z,993.75
2016-11-18T10:35:12.929Z,993.8
2016-11-18T10:36:23.079Z,993.76
2016-11-18T10:37:33.434Z,993.7
2016-11-18T10:38:43.774Z,993.72
2016-11-18T10:39:54.266Z,993.63
2016-11-18T10:41:04.699Z,993.65
2016-11-18T10:42:15.533Z,993.59
2016-11-18T10:43:25.876Z,993.61
2016-11-18T10:44:36.220Z,993.59
2016-11-18T10:45:46.273Z,993.55
2016-11-18T10:46:56.648Z,993.56
2016-11-18T10:48:06.716Z,993.52
2016-11-18T10:49:17.082Z,993.51
2016-11-18T10:50:27.448Z,993.45
2016-11-18T10:51:37.505Z,993.4
2016-11-18T10:52:47.873Z,993.39
2016-11-18T10:53:57.936Z,993.39
2016-11-18T10:55:08.352Z,993.35
2016-11-18T10:56:18.715Z,993.4
2016-11-18T10:57:28.454Z,993.44
2016-11-18T10:58:38.809Z,993.45
2016-11-18T10:59:49.173Z,993.42
2016-11-18T11:00:59.519Z,993.45
2016-11-18T11:02:09.852Z,993.44
2016-11-18T11:03:20.201Z,993.57
2016-11-18T11:04:30.555Z,993.56
2016-11-18T11:05:40.899Z,993.54
2016-11-18T11:06:51.263Z,993.54
2016-11-18T11:08:01.304Z,993.5
2016-11-18T11:09:11.653Z,993.51
2016-11-18T11:10:21.688Z,993.51
2016-11-18T11:11:32.058Z,993.5
2016-11-18T11:12:42.408Z,993.47
2016-11-18T11:13:52.431Z,993.41
2016-11-18T11:15:02.784Z,993.34
2016-11-18T11:16:13.121Z,993.33
2016-11-18T11:17:23.174Z,993.34
2016-11-18T11:18:33.539Z,993.37
2016-11-18T11:19:43.902Z,993.33
2016-11-18T11:20:54.246Z,993.33
2016-11-18T11:22:04.595Z,993.32
2016-11-18T11:23:14.647Z,993.33
2016-11-18T11:24:24.943Z,993.28
2016-11-18T11:25:35.339Z,993.23
2016-11-18T11:26:45.448Z,993.29
2016-11-18T11:27:55.798Z,993.23
2016-11-18T11:29:06.144Z,993.22
2016-11-18T11:30:16.206Z,993.18
2016-11-18T11:31:26.248Z,993.11
2016-11-18T11:32:36.309Z,993.05
2016-11-18T11:33:46.672Z,993.11
2016-11-18T11:34:57.014Z,993.09
2016-11-18T11:36:07.061Z,993.09
2016-11-18T11:37:17.418Z,993.11
2016-11-18T11:38:27.778Z,993.09
2016-11-18T11:39:38.125Z,993.1
2016-11-18T11:40:47.533Z,993.01
2016-11-18T11:41:57.872Z,992.97
2016-11-18T11:43:08.215Z,992.98
2016-11-18T11:44:18.586Z,992.92
2016-11-18T11:45:28.927Z,992.9
2016-11-18T11:46:38.967Z,992.87
2016-11-18T11:47:49.368Z,992.81
2016-11-18T11:48:59.417Z,992.79
2016-11-18T11:50:09.793Z,992.72
2016-11-18T11:51:20.170Z,992.72
2016-11-18T11:52:30.510Z,992.72
2016-11-18T11:53:40.855Z,992.7
2016-11-18T11:54:51.210Z,992.66
2016-11-18T11:56:01.595Z,992.68
2016-11-18T11:57:11.706Z,992.7
2016-11-18T11:58:22.138Z,992.69
2016-11-18T11:59:32.224Z,992.68
2016-11-18T12:00:42.308Z,992.66
2016-11-18T12:01:52.444Z,992.59
2016-11-18T12:03:02.245Z,992.62
2016-11-18T12:04:12.664Z,992.59
2016-11-18T12:05:23.116Z,992.57
2016-11-18T12:06:33.506Z,992.55
2016-11-18T12:07:43.963Z,992.47
2016-11-18T12:08:54.424Z,992.47
2016-11-18T12:10:04.806Z,992.49
2016-11-18T12:11:15.171Z,992.5
2016-11-18T12:12:25.675Z,992.53
2016-11-18T12:13:36.153Z,992.52
2016-11-18T12:14:46.787Z,992.5
2016-11-18T12:15:57.326Z,992.48
2016-11-18T12:17:07.957Z,992.47
2016-11-18T12:18:18.452Z,992.41
2016-11-18T12:19:29.047Z,992.44
2016-11-18T12:20:39.501Z,992.45
2016-11-18T12:21:49.590Z,992.47
2016-11-18T12:22:59.744Z,992.46
2016-11-18T12:24:10.212Z,992.45
2016-11-18T12:25:20.710Z,992.4
2016-11-18T12:26:31.208Z,992.42
2016-11-18T12:27:41.771Z,992.4
2016-11-18T12:28:52.334Z,992.35
2016-11-18T12:30:02.770Z,992.27
2016-11-18T12:31:12.965Z,992.23
2016-11-18T12:32:23.382Z,992.18
2016-11-18T12:33:33.753Z,992.13
2016-11-18T12:34:44.361Z,992.14
2016-11-18T12:35:55.006Z,992.09
2016-11-18T12:37:05.508Z,992.07
2016-11-18T12:38:15.672Z,992.04
2016-11-18T12:39:25.908Z,992.05
2016-11-18T12:40:36.367Z,992.03
2016-11-18T12:41:46.882Z,991.99
2016-11-18T12:42:57.368Z,991.97
2016-11-18T12:44:08.038Z,991.98
2016-11-18T12:45:18.469Z,991.92
2016-11-18T12:46:28.678Z,991.91
2016-11-18T12:47:39.082Z,991.87
2016-11-18T12:48:49.312Z,991.9
2016-11-18T12:49:59.480Z,991.86
2016-11-18T12:51:09.904Z,991.86
2016-11-18T12:52:20.378Z,991.87
2016-11-18T12:53:30.948Z,991.86
2016-11-18T12:54:41.080Z,991.86
2016-11-18T12:55:51.714Z,991.83
2016-11-18T12:57:02.395Z,991.82
2016-11-18T12:58:12.557Z,991.79
2016-11-18T12:59:23.012Z,991.8
2016-11-18T13:00:33.524Z,991.78
2016-11-18T13:01:43.984Z,991.79
2016-11-18T13:02:54.588Z,991.76
2016-11-18T13:04:04.987Z,991.76
2016-11-18T13:05:15.441Z,991.75
2016-11-18T13:06:26.072Z,991.78
2016-11-18T13:07:36.561Z,991.71
2016-11-18T13:08:46.938Z,991.7
2016-11-18T13:09:57.488Z,991.62
2016-11-18T13:11:07.997Z,991.66
2016-11-18T13:12:18.101Z,991.64
2016-11-18T13:13:28.532Z,991.58
2016-11-18T13:14:38.761Z,991.61
2016-11-18T13:15:49.259Z,991.56
2016-11-18T13:16:59.811Z,991.53
2016-11-18T13:18:10.675Z,991.53
2016-11-18T13:19:21.094Z,991.47
2016-11-18T13:20:31.491Z,991.47
2016-11-18T13:21:41.741Z,991.46
2016-11-18T13:22:52.155Z,991.46
2016-11-18T13:24:02.741Z,991.44
2016-11-18T13:25:13.226Z,991.4
2016-11-18T13:26:23.074Z,991.36
2016-11-18T13:27:33.187Z,991.35
2016-11-18T13:28:43.906Z,991.35
2016-11-18T13:29:54.596Z,991.31
2016-11-18T13:31:05.153Z,991.28
2016-11-18T13:32:15.766Z,991.31
2016-11-18T13:33:25.812Z,991.29
2016-11-18T13:34:36.396Z,991.26
2016-11-18T13:35:46.764Z,991.25
2016-11-18T13:36:57.351Z,991.21
2016-11-18T13:38:07.470Z,991.24
2016-11-18T13:39:17.756Z,991.18
2016-11-18T13:40:28.203Z,991.16
2016-11-18T13:41:38.745Z,991.15
2016-11-18T13:42:49.177Z,991.15
2016-11-18T13:43:59.565Z,991.18
2016-11-18T13:45:10.162Z,991.23
2016-11-18T13:46:20.524Z,991.17
2016-11-18T13:47:30.872Z,991.16
2016-11-18T13:48:41.215Z,991.11
2016-11-18T13:49:51.260Z,991.1
2016-11-18T13:51:01.632Z,991.11
2016-11-18T13:52:11.998Z,991.08
2016-11-18T13:53:22.036Z,991.02
2016-11-18T13:54:32.320Z,990.98
2016-11-18T13:55:42.690Z,990.96
2016-11-18T13:56:53.112Z,990.99
2016-11-18T13:58:03.170Z,990.96
2016-11-18T13:59:13.537Z,990.89
2016-11-18T14:00:23.921Z,990.87
2016-11-18T14:01:34.310Z,990.8
2016-11-18T14:02:44.689Z,990.87
2016-11-18T14:03:54.724Z,990.8
2016-11-18T14:05:05.137Z,990.85
2016-11-18T14:06:15.489Z,990.83
2016-11-18T14:07:25.856Z,990.86
2016-11-18T14:08:36.219Z,990.8
2016-11-18T14:09:46.576Z,990.83
2016-11-18T14:10:56.632Z,990.83
2016-11-18T14:12:06.581Z,990.81
2016-11-18T14:13:16.912Z,990.82
2016-11-18T14:14:27.269Z,990.8
2016-11-18T14:15:37.624Z,990.77
2016-11-18T14:16:47.992Z,990.74
2016-11-18T14:17:58.031Z,990.77
2016-11-18T14:19:08.388Z,990.73
2016-11-18T14:20:18.740Z,990.77
2016-11-18T14:21:28.760Z,990.77
2016-11-18T14:22:39.112Z,990.78
2016-11-18T14:23:49.164Z,990.72
2016-11-18T14:24:59.208Z,990.75
2016-11-18T14:26:09.563Z,990.75
2016-11-18T14:27:19.909Z,990.78
2016-11-18T14:28:30.254Z,990.75
2016-11-18T14:29:40.637Z,990.69
2016-11-18T14:30:51.014Z,990.65
2016-11-18T14:32:01.354Z,990.64
2016-11-18T14:33:11.379Z,990.65
2016-11-18T14:34:21.778Z,990.63
2016-11-18T14:35:32.181Z,990.7
2016-11-18T14:36:42.536Z,990.67
2016-11-18T14:37:52.938Z,990.68
2016-11-18T14:39:03.302Z,990.71
2016-11-18T14:40:13.657Z,990.74
2016-11-18T14:41:24.001Z,990.71
2016-11-18T14:42:34.029Z,990.73
2016-11-18T14:43:44.396Z,990.75
2016-11-18T14:44:54.116Z,990.71
2016-11-18T14:46:04.467Z,990.74
2016-11-18T14:47:14.810Z,990.76
2016-11-18T14:48:24.864Z,990.75
2016-11-18T14:49:35.286Z,990.74
2016-11-18T14:50:45.670Z,990.75
2016-11-18T14:51:56.031Z,990.72
2016-11-18T14:53:06.083Z,990.71
2016-11-18T14:54:16.449Z,990.73
2016-11-18T14:55:26.505Z,990.75
2016-11-18T14:56:36.838Z,990.74
2016-11-18T14:57:47.183Z,990.73
2016-11-18T14:58:57.550Z,990.69
2016-11-18T15:00:07.893Z,990.66
2016-11-18T15:01:17.944Z,990.69
2016-11-18T15:02:28.290Z,990.66
2016-11-18T15:03:38.666Z,990.7
2016-11-18T15:04:48.694Z,990.71
2016-11-18T15:05:59.036Z,990.68
2016-11-18T15:07:09.076Z,990.74
2016-11-18T15:08:19.415Z,990.74
2016-11-18T15:09:29.763Z,990.76